createdAt,value
2022-09-06T00:00:48.372Z,19.40
2022-09-06T00:03:35.577Z,19.25
2022-09-06T00:06:22.629Z,19.36
2022-09-06T00:09:09.588Z,19.34
2022-09-06T00:11:56.664Z,19.20
2022-09-06T00:14:43.752Z,19.16
2022-09-06T00:17:32.624Z,19.02
2022-09-06T00:20:19.810Z,18.94
2022-09-06T00:23:07.313Z,18.92
2022-09-06T00:26:01.317Z,18.92
2022-09-06T00:28:48.681Z,19.00
2022-09-06T00:31:35.780Z,18.95
2022-09-06T00:34:22.898Z,18.90
2022-09-06T00:37:09.901Z,18.88
2022-09-06T00:39:56.973Z,19.04
2022-09-06T00:42:44.052Z,18.89
2022-09-06T00:45:32.137Z,18.95
2022-09-06T00:48:19.531Z,18.84
2022-09-06T00:51:11.218Z,18.80
2022-09-06T00:53:59.273Z,18.78
2022-09-06T00:56:47.043Z,18.88
2022-09-06T00:59:37.275Z,18.84
2022-09-06T01:02:24.522Z,18.96
2022-09-06T01:05:12.610Z,18.97
2022-09-06T01:07:59.885Z,19.01
2022-09-06T01:11:06.965Z,18.99
2022-09-06T01:13:59.815Z,19.06
2022-09-06T01:17:21.518Z,19.14
2022-09-06T01:20:23.762Z,19.11
2022-09-06T01:23:32.150Z,19.04
2022-09-06T01:26:57.926Z,19.11
2022-09-06T01:30:13.018Z,19.00
2022-09-06T01:33:12.155Z,19.09
2022-09-06T01:36:07.135Z,19.06
2022-09-06T01:38:54.149Z,19.07
2022-09-06T01:41:41.182Z,19.04
2022-09-06T01:44:30.429Z,19.03
2022-09-06T01:47:23.606Z,18.97
2022-09-06T01:50:32.333Z,19.01
2022-09-06T01:53:54.036Z,19.02
2022-09-06T01:56:53.222Z,18.98
2022-09-06T02:00:25.442Z,18.95
2022-09-06T02:03:24.602Z,18.92
2022-09-06T02:06:20.933Z,18.92
2022-09-06T02:09:13.331Z,19.00
2022-09-06T02:12:04.292Z,18.97
2022-09-06T02:14:57.169Z,18.89
2022-09-06T02:17:53.521Z,18.91
2022-09-06T02:20:50.840Z,18.88
2022-09-06T02:23:40.505Z,18.87
2022-09-06T02:26:32.756Z,18.89
2022-09-06T02:29:20.057Z,18.91
2022-09-06T02:32:10.104Z,18.84
2022-09-06T02:34:57.726Z,18.85
2022-09-06T02:37:45.278Z,18.89
2022-09-06T02:40:32.373Z,18.86
2022-09-06T02:43:19.922Z,18.84
2022-09-06T02:46:07.190Z,18.91
2022-09-06T02:48:54.282Z,18.90
2022-09-06T02:51:41.475Z,18.82
2022-09-06T02:54:28.607Z,18.80
2022-09-06T02:57:15.636Z,18.86
2022-09-06T03:00:04.627Z,18.87
2022-09-06T03:02:51.686Z,18.84
2022-09-06T03:05:38.955Z,18.88
2022-09-06T03:08:26.532Z,18.87
2022-09-06T03:11:13.983Z,18.86
2022-09-06T03:14:00.996Z,18.87
2022-09-06T03:16:48.087Z,18.79
2022-09-06T03:19:35.208Z,18.71
2022-09-06T03:22:22.222Z,18.70
2022-09-06T03:25:10.408Z,18.82
2022-09-06T03:27:57.458Z,18.82
2022-09-06T03:30:46.257Z,18.69
2022-09-06T03:33:33.427Z,18.73
2022-09-06T03:36:20.569Z,18.71
2022-09-06T03:39:07.672Z,18.69
2022-09-06T03:41:54.636Z,18.66
2022-09-06T03:44:41.778Z,18.58
2022-09-06T03:47:28.722Z,18.53
2022-09-06T03:50:15.898Z,18.45
2022-09-06T03:53:02.845Z,18.48
2022-09-06T03:55:52.796Z,18.50
2022-09-06T03:58:39.799Z,18.48
2022-09-06T04:01:27.003Z,18.47
2022-09-06T04:04:14.165Z,18.47
2022-09-06T04:07:01.226Z,18.45
2022-09-06T04:09:48.572Z,18.38
2022-09-06T04:12:35.567Z,18.36
2022-09-06T04:15:22.526Z,18.44
2022-09-06T04:18:09.533Z,18.43
2022-09-06T04:20:57.191Z,18.47
2022-09-06T04:23:44.213Z,18.47
2022-09-06T04:26:31.411Z,18.43
2022-09-06T04:29:18.425Z,18.46
2022-09-06T04:32:05.652Z,18.39
2022-09-06T04:34:52.695Z,18.44
2022-09-06T04:37:40.065Z,18.40
2022-09-06T04:40:27.129Z,18.36
2022-09-06T04:43:14.116Z,18.38
2022-09-06T04:46:09.563Z,18.34
2022-09-06T04:48:58.102Z,18.39
2022-09-06T04:51:45.122Z,18.28
2022-09-06T04:54:32.265Z,18.31
2022-09-06T04:57:19.310Z,18.29
2022-09-06T05:00:07.153Z,18.15
2022-09-06T05:02:54.164Z,18.13
2022-09-06T05:05:41.492Z,18.18
2022-09-06T05:08:29.831Z,18.18
2022-09-06T05:11:18.150Z,18.18
2022-09-06T05:14:10.244Z,18.14
2022-09-06T05:20:29.037Z,18.16
2022-09-06T05:23:16.201Z,18.15
2022-09-06T05:26:07.961Z,18.20
2022-09-06T05:28:55.844Z,18.17
2022-09-06T05:32:17.802Z,18.10
2022-09-06T05:38:07.811Z,18.20
2022-09-06T05:41:07.971Z,18.23
2022-09-06T05:43:55.606Z,18.23
2022-09-06T05:49:57.788Z,18.10
2022-09-06T06:04:19.430Z,18.09
2022-09-06T06:11:21.534Z,17.99
2022-09-06T06:17:28.345Z,17.67
2022-09-06T06:24:04.108Z,17.59
2022-09-06T06:26:51.298Z,17.53
2022-09-06T06:29:38.303Z,17.45
2022-09-06T06:32:30.665Z,17.41
2022-09-06T06:35:18.585Z,17.41
2022-09-06T06:38:05.651Z,17.19
2022-09-06T06:40:57.219Z,17.26
2022-09-06T06:44:03.569Z,17.33
2022-09-06T06:46:51.718Z,17.35
2022-09-06T06:49:39.191Z,17.47
2022-09-06T07:30:45.100Z,18.50
2022-09-06T07:37:25.491Z,18.17
2022-09-06T07:54:31.865Z,18.18
2022-09-06T07:57:24.218Z,18.43
2022-09-06T08:04:53.490Z,18.67
2022-09-06T08:07:40.944Z,18.78
2022-09-06T08:10:31.398Z,18.83
2022-09-06T08:29:16.379Z,19.49
2022-09-06T08:32:03.875Z,19.47
2022-09-06T08:34:50.926Z,19.28
2022-09-06T08:37:37.976Z,19.22
2022-09-06T08:40:25.554Z,19.44
2022-09-06T08:43:18.602Z,19.43
2022-09-06T08:46:07.998Z,19.70
2022-09-06T08:48:55.615Z,19.20
2022-09-06T08:52:20.092Z,19.41
2022-09-06T08:55:23.806Z,19.45
2022-09-06T08:58:18.349Z,19.45
2022-09-06T09:01:17.662Z,19.15
2022-09-06T09:04:07.633Z,19.13
2022-09-06T09:07:00.818Z,19.07
2022-09-06T09:09:48.098Z,19.17
2022-09-06T09:12:42.287Z,19.02
2022-09-06T09:15:29.462Z,18.89
2022-09-06T09:18:25.791Z,19.07
2022-09-06T09:21:14.153Z,18.90
2022-09-06T09:24:13.483Z,18.88
2022-09-06T09:27:08.787Z,18.82
2022-09-06T09:33:29.218Z,18.96
2022-09-06T09:36:21.490Z,19.26
2022-09-06T09:39:12.662Z,19.51
2022-09-06T09:42:00.047Z,19.76
2022-09-06T09:44:47.154Z,19.90
2022-09-06T09:47:34.567Z,20.00
2022-09-06T09:50:31.939Z,20.40
2022-09-06T09:53:22.543Z,20.43
2022-09-06T09:56:09.655Z,20.79
2022-09-06T09:59:01.801Z,21.14
2022-09-06T10:01:49.902Z,20.87
2022-09-06T10:04:45.120Z,21.26
2022-09-06T10:07:49.929Z,21.08
2022-09-06T10:10:43.459Z,21.37
2022-09-06T10:13:31.226Z,21.67
2022-09-06T10:16:47.461Z,21.72
2022-09-06T10:19:43.248Z,21.70
2022-09-06T10:22:51.269Z,22.02
2022-09-06T10:25:43.041Z,22.71
2022-09-06T10:28:39.429Z,22.94
2022-09-06T10:32:11.063Z,23.46
2022-09-06T10:47:15.863Z,24.00
2022-09-06T10:50:06.407Z,24.31
2022-09-06T11:02:02.765Z,23.83
2022-09-06T11:09:31.943Z,24.88
2022-09-06T11:36:10.130Z,25.41
2022-09-06T11:41:53.102Z,25.75
2022-09-06T12:18:43.262Z,25.99
2022-09-06T12:21:36.456Z,26.00
2022-09-06T12:39:12.722Z,26.11
2022-09-06T12:42:06.946Z,25.88
2022-09-06T14:01:11.739Z,27.29
2022-09-06T14:03:59.638Z,27.38
2022-09-06T14:06:47.937Z,27.64
2022-09-06T14:09:34.938Z,27.25
2022-09-06T14:12:21.978Z,27.51
2022-09-06T14:15:10.022Z,27.72
2022-09-06T14:17:57.138Z,27.72
2022-09-06T14:20:52.347Z,27.65
2022-09-06T14:23:39.454Z,27.67
2022-09-06T14:26:26.544Z,27.32
2022-09-06T14:29:13.607Z,27.24
2022-09-06T14:32:00.853Z,27.28
2022-09-06T14:34:47.952Z,27.13
2022-09-06T14:37:34.969Z,27.30
2022-09-06T14:40:22.229Z,27.42
2022-09-06T14:43:09.229Z,27.27
2022-09-06T14:46:12.846Z,27.22
2022-09-06T14:49:07.465Z,27.40
2022-09-06T14:51:54.619Z,27.62
2022-09-06T14:54:41.736Z,27.45
2022-09-06T14:57:30.109Z,27.60
2022-09-06T15:00:17.883Z,27.71
2022-09-06T15:03:04.929Z,27.54
2022-09-06T15:05:51.975Z,27.46
2022-09-06T15:08:39.072Z,27.50
2022-09-06T15:11:35.079Z,27.27
2022-09-06T15:14:28.474Z,27.23
2022-09-06T15:17:15.556Z,27.14
2022-09-06T15:20:02.976Z,27.02
2022-09-06T15:22:56.322Z,27.07
2022-09-06T15:25:56.245Z,27.10
2022-09-06T15:28:44.548Z,27.10
2022-09-06T15:31:34.290Z,27.10
2022-09-06T15:34:24.350Z,27.26
2022-09-06T15:37:11.313Z,27.12
2022-09-06T15:39:58.384Z,26.99
2022-09-06T15:42:45.471Z,27.04
2022-09-06T15:45:46.763Z,26.84
2022-09-06T15:48:47.984Z,26.68
2022-09-06T15:51:37.222Z,26.74
2022-09-06T15:54:44.380Z,26.69
2022-09-06T15:57:31.470Z,26.78
2022-09-06T16:00:22.193Z,26.59
2022-09-06T16:03:09.217Z,26.49
2022-09-06T16:09:19.854Z,26.16
2022-09-06T16:12:07.115Z,26.17
2022-09-06T16:14:54.124Z,26.12
2022-09-06T16:17:41.187Z,25.98
2022-09-06T16:20:31.658Z,25.99
2022-09-06T16:23:20.618Z,26.02
2022-09-06T16:26:09.462Z,25.84
2022-09-06T16:28:56.460Z,25.80
2022-09-06T16:31:43.548Z,25.73
2022-09-06T16:34:30.650Z,25.65
2022-09-06T16:37:17.713Z,25.58
2022-09-06T16:40:05.203Z,25.33
2022-09-06T16:42:54.568Z,25.21
2022-09-06T16:45:41.730Z,25.18
2022-09-06T16:48:29.469Z,25.34
2022-09-06T16:51:18.597Z,25.08
2022-09-06T16:54:05.690Z,25.00
2022-09-06T16:56:52.878Z,24.88
2022-09-06T16:59:40.736Z,24.71
2022-09-06T17:02:28.383Z,24.56
2022-09-06T17:05:15.417Z,24.50
2022-09-06T17:08:03.314Z,24.51
2022-09-06T17:10:50.366Z,24.42
2022-09-06T17:13:38.041Z,24.17
2022-09-06T17:16:44.205Z,24.12
2022-09-06T17:19:40.274Z,24.04
2022-09-06T17:22:27.358Z,23.89
2022-09-06T17:25:14.785Z,23.88
2022-09-06T17:28:01.984Z,23.70
2022-09-06T17:30:49.856Z,23.74
2022-09-06T17:33:37.197Z,23.64
2022-09-06T17:36:30.564Z,23.40
2022-09-06T17:39:21.041Z,23.35
2022-09-06T17:42:08.718Z,23.14
2022-09-06T17:44:55.749Z,23.15
2022-09-06T17:47:42.748Z,23.11
2022-09-06T17:50:33.959Z,22.93
2022-09-06T17:53:20.982Z,22.73
2022-09-06T17:56:10.389Z,22.60
2022-09-06T17:59:00.098Z,22.44
2022-09-06T18:01:47.608Z,22.42
2022-09-06T18:04:34.852Z,22.18
2022-09-06T18:07:21.902Z,22.00
2022-09-06T18:10:10.021Z,22.11
2022-09-06T18:12:57.010Z,22.09
2022-09-06T18:15:44.146Z,21.95
2022-09-06T18:18:32.786Z,21.76
2022-09-06T18:21:20.221Z,21.77
2022-09-06T18:24:09.400Z,21.52
2022-09-06T18:26:56.444Z,21.51
2022-09-06T18:29:43.490Z,21.22
2022-09-06T18:32:30.986Z,21.22
2022-09-06T18:35:18.072Z,21.17
2022-09-06T18:38:05.158Z,21.07
2022-09-06T18:40:52.330Z,21.02
2022-09-06T18:43:40.395Z,20.92
2022-09-06T18:46:27.871Z,20.72
2022-09-06T18:49:16.130Z,20.67
2022-09-06T18:52:05.174Z,20.66
2022-09-06T18:54:52.361Z,20.39
2022-09-06T18:57:39.558Z,20.33
2022-09-06T19:00:26.992Z,20.27
2022-09-06T19:03:14.464Z,20.23
2022-09-06T19:06:06.757Z,20.16
2022-09-06T19:08:57.581Z,20.14
2022-09-06T19:11:47.072Z,20.09
2022-09-06T19:14:34.370Z,19.98
2022-09-06T19:17:21.387Z,19.90
2022-09-06T19:20:10.789Z,19.83
2022-09-06T19:22:57.789Z,19.70
2022-09-06T19:25:45.890Z,19.56
2022-09-06T19:28:33.745Z,19.47
2022-09-06T19:31:20.838Z,19.45
2022-09-06T19:34:08.013Z,19.33
2022-09-06T19:36:57.379Z,19.33
2022-09-06T19:39:44.460Z,19.32
2022-09-06T19:42:31.561Z,19.30
2022-09-06T19:45:18.595Z,19.20
2022-09-06T19:48:06.506Z,19.13
2022-09-06T19:50:53.490Z,19.14
2022-09-06T19:53:41.958Z,19.06
2022-09-06T19:56:34.486Z,18.98
2022-09-06T19:59:21.501Z,18.96
2022-09-06T20:02:09.463Z,18.95
2022-09-06T20:04:56.551Z,18.90
2022-09-06T20:07:43.749Z,18.89
2022-09-06T20:10:31.185Z,18.87
2022-09-06T20:13:18.274Z,18.88
2022-09-06T20:16:07.328Z,18.81
2022-09-06T20:18:55.214Z,18.86
2022-09-06T20:21:43.044Z,18.83
2022-09-06T20:24:30.058Z,18.77
2022-09-06T20:27:17.117Z,18.77
2022-09-06T20:30:04.517Z,18.71
2022-09-06T20:32:51.517Z,18.76
2022-09-06T20:35:38.550Z,18.71
2022-09-06T20:38:26.015Z,18.78
2022-09-06T20:41:16.410Z,18.70
2022-09-06T20:44:03.944Z,18.82
2022-09-06T20:46:51.590Z,18.71
2022-09-06T20:49:38.653Z,18.76
2022-09-06T20:52:25.963Z,18.75
2022-09-06T20:55:13.025Z,18.74
2022-09-06T20:58:00.018Z,18.70
2022-09-06T21:00:47.033Z,18.60
2022-09-06T21:03:37.308Z,18.65
2022-09-06T21:06:29.100Z,18.64
2022-09-06T21:09:16.506Z,18.55
2022-09-06T21:12:04.682Z,18.48
2022-09-06T21:14:51.787Z,18.42
2022-09-06T21:17:39.039Z,18.43
2022-09-06T21:20:26.326Z,18.49
2022-09-06T21:23:13.693Z,18.48
2022-09-06T21:26:03.161Z,18.39
2022-09-06T21:28:50.639Z,18.34
2022-09-06T21:31:38.288Z,18.23
2022-09-06T21:34:25.895Z,18.19
2022-09-06T21:37:13.071Z,18.36
2022-09-06T21:40:00.285Z,18.35
2022-09-06T21:42:48.009Z,18.32
2022-09-06T21:45:38.261Z,18.33
2022-09-06T21:48:25.507Z,18.27
2022-09-06T21:51:18.697Z,18.28
2022-09-06T21:54:06.862Z,18.37
2022-09-06T21:56:54.783Z,18.33
2022-09-06T21:59:41.857Z,18.49
2022-09-06T22:02:29.035Z,18.43
2022-09-06T22:05:16.134Z,18.44
2022-09-06T22:08:03.390Z,18.41
2022-09-06T22:10:50.714Z,18.43
2022-09-06T22:13:38.210Z,18.41
2022-09-06T22:16:25.344Z,18.43
2022-09-06T22:19:12.809Z,18.39
2022-09-06T22:21:59.785Z,18.41
2022-09-06T22:24:46.858Z,18.44
2022-09-06T22:27:33.909Z,18.36
2022-09-06T22:30:25.506Z,18.32
2022-09-06T22:33:12.728Z,18.33
2022-09-06T22:36:02.959Z,18.36
2022-09-06T22:38:57.502Z,18.29
2022-09-06T22:41:44.965Z,18.18
2022-09-06T22:44:31.978Z,18.16
2022-09-06T22:47:19.030Z,18.19
2022-09-06T22:50:06.737Z,18.25
2022-09-06T22:52:54.141Z,18.21
2022-09-06T22:55:47.284Z,18.15
2022-09-06T22:58:35.459Z,18.08
2022-09-06T23:01:22.587Z,18.00
2022-09-06T23:04:10.197Z,17.95
2022-09-06T23:06:59.834Z,17.95
2022-09-06T23:09:46.853Z,17.96
2022-09-06T23:12:33.823Z,17.89
2022-09-06T23:15:20.857Z,17.84
2022-09-06T23:18:08.642Z,17.83
2022-09-06T23:20:55.713Z,17.80
2022-09-06T23:23:43.488Z,17.73
2022-09-06T23:26:32.176Z,17.71
2022-09-06T23:29:19.302Z,17.68
2022-09-06T23:32:07.132Z,17.64
2022-09-06T23:34:55.834Z,17.61
2022-09-06T23:37:42.869Z,17.59
2022-09-06T23:40:29.921Z,17.51
2022-09-06T23:43:16.934Z,17.50
2022-09-06T23:46:04.108Z,17.59
2022-09-06T23:48:51.118Z,17.56
2022-09-06T23:51:38.203Z,17.63
2022-09-06T23:54:25.170Z,17.74
2022-09-06T23:57:12.338Z,17.80
2022-09-06T23:59:59.316Z,17.89
